Time;durP1;ratioP1;P1;durP2;ratioP2;P2;SDS_P1;SDS_P2;PMS_P1;PMS_P2;Temp;Humidity;BMP_temperature;BMP_pressure;BME280_temperature;BME280_humidity;BME280_pressure;Samples;Min_cycle;Max_cycle;Signal;HPM_P1;HPM_P2
2021/11/08 00:00:27;;;;;;;;;9.00;8.25;;;;;22.33;39.91;102233.31;4971843;28;45470;-63
2021/11/08 00:02:53;;;;;;;;;8.75;8.50;;;;;22.35;39.35;102225.25;4971950;28;45473;-63
2021/11/08 00:05:18;;;;;;;;;6.00;6.00;;;;;22.31;39.51;102222.03;4972837;28;47327;-63
2021/11/08 00:07:48;;;;;;;;;9.50;7.25;;;;;22.26;39.39;102217.19;4972267;28;45386;-62
2021/11/08 00:10:13;;;;;;;;;7.50;7.00;;;;;22.34;39.47;102224.41;4971783;28;45286;-62
2021/11/08 00:12:39;;;;;;;;;9.00;7.75;;;;;22.34;39.42;102223.56;4971550;28;45259;-62
2021/11/08 00:15:07;;;;;;;;;10.00;8.00;;;;;22.32;39.21;102234.31;4969993;28;45407;-62
2021/11/08 00:20:11;;;;;;;;;9.50;8.25;;;;;22.34;39.12;102239.47;4973591;28;45425;-62
2021/11/08 00:22:39;;;;;;;;;9.00;7.00;;;;;22.31;39.30;102234.44;4970815;28;45707;-62
2021/11/08 00:25:04;;;;;;;;;7.75;7.25;;;;;22.33;39.74;102233.31;4971058;28;47470;-63
2021/11/08 00:27:30;;;;;;;;;9.00;8.00;;;;;22.31;39.83;102229.16;4971400;28;45319;-62
2021/11/08 00:29:56;;;;;;;;;11.25;6.25;;;;;22.31;39.38;102234.44;4971307;28;45445;-63
2021/11/08 00:32:21;;;;;;;;;10.75;8.75;;;;;22.33;39.18;102248.41;4971663;28;45384;-63
2021/11/08 00:34:46;;;;;;;;;10.75;9.00;;;;;22.25;39.18;102230.59;4972335;28;45491;-62
2021/11/08 00:37:12;;;;;;;;;7.75;7.25;;;;;22.29;39.75;102229.31;4971359;28;45404;-62
2021/11/08 00:39:38;;;;;;;;;7.00;7.00;;;;;22.29;39.29;102232.81;4971547;28;45335;-61
2021/11/08 00:42:04;;;;;;;;;6.75;6.75;;;;;22.28;39.52;102235.59;4970090;28;45426;-61
2021/11/08 00:44:30;;;;;;;;;7.00;6.00;;;;;22.25;39.41;102214.69;4970891;28;45477;-61
2021/11/08 00:46:56;;;;;;;;;8.00;8.00;;;;;22.29;39.27;102226.66;4973253;28;45485;-62
2021/11/08 00:49:24;;;;;;;;;7.25;7.25;;;;;22.28;39.53;102228.47;4971253;28;45454;-62
2021/11/08 00:51:49;;;;;;;;;7.25;7.00;;;;;22.25;39.72;102227.94;4971057;28;45449;-61
2021/11/08 00:54:16;;;;;;;;;8.50;8.00;;;;;22.27;39.75;102231.28;4969565;28;45981;-62
2021/11/08 00:56:46;;;;;;;;;10.75;8.00;;;;;22.25;39.76;102227.94;4971318;28;45487;-61
2021/11/08 00:59:13;;;;;;;;;10.00;8.00;;;;;22.25;39.26;102225.31;4968883;28;46348;-61
2021/11/08 01:01:39;;;;;;;;;11.25;6.25;;;;;22.28;39.47;102230.28;4970031;28;45558;-61
2021/11/08 01:04:06;;;;;;;;;12.00;7.50;;;;;22.27;39.24;102229.47;4966269;28;46913;-62
2021/11/08 01:06:32;;;;;;;;;8.50;6.75;;;;;22.25;39.46;102222.66;4967592;28;45652;-61
2021/11/08 01:08:57;;;;;;;;;7.25;6.00;;;;;22.25;39.19;102214.69;4954313;28;45355;-61
2021/11/08 01:11:23;;;;;;;;;6.75;6.75;;;;;22.26;39.07;102227.78;4969466;28;45449;-61
2021/11/08 01:13:48;;;;;;;;;8.75;7.25;;;;;22.25;39.18;102220.81;4967383;28;45409;-62
2021/11/08 01:16:14;;;;;;;;;10.00;8.00;;;;;22.24;39.08;102215.66;4966476;28;45667;-62
2021/11/08 01:18:40;;;;;;;;;10.00;7.00;;;;;22.25;39.07;102223.47;4966686;28;45433;-62
2021/11/08 01:21:08;;;;;;;;;8.00;8.00;;;;;22.26;39.38;102222.50;4966643;28;45427;-61
2021/11/08 01:23:35;;;;;;;;;10.75;9.00;;;;;22.25;39.31;102212.03;4969624;28;46242;-62
2021/11/08 01:26:08;;;;;;;;;5.50;5.50;;;;;22.24;38.80;102207.72;4968372;28;45224;-61
2021/11/08 01:28:37;;;;;;;;;11.00;8.50;;;;;22.23;39.20;102211.34;4966015;28;45217;-62
2021/11/08 01:31:09;;;;;;;;;11.75;9.50;;;;;22.25;38.91;102204.91;4966462;28;45326;-62
2021/11/08 01:33:35;;;;;;;;;11.25;7.50;;;;;22.24;38.87;102189.16;4964671;28;46142;-61
2021/11/08 01:38:39;;;;;;;;;10.00;9.00;;;;;22.23;39.34;102196.25;4969476;28;45316;-62
2021/11/08 01:41:05;;;;;;;;;10.75;8.00;;;;;22.22;39.40;102194.63;4967973;28;45477;-61
2021/11/08 01:43:31;;;;;;;;;15.75;8.75;;;;;22.25;39.16;102193.50;4967240;28;46024;-61
2021/11/08 01:45:56;;;;;;;;;6.25;6.25;;;;;22.22;38.81;102199.06;4973441;28;45930;-62
2021/11/08 01:48:21;;;;;;;;;9.50;8.50;;;;;22.22;39.27;102197.28;4973579;28;45325;-62
2021/11/08 01:50:47;;;;;;;;;8.00;7.50;;;;;22.23;38.68;102187.47;4973650;28;45465;-62
2021/11/08 01:53:13;;;;;;;;;9.25;9.25;;;;;22.25;38.79;102189.00;4975521;28;46346;-61
2021/11/08 01:55:38;;;;;;;;;8.00;8.00;;;;;22.23;38.62;102180.38;4971760;28;45786;-61
2021/11/08 01:58:05;;;;;;;;;8.75;8.00;;;;;22.25;38.64;102198.78;4972949;28;45287;-61
2021/11/08 02:00:32;;;;;;;;;8.00;6.75;;;;;22.23;39.27;102201.56;4971978;28;45452;-62
2021/11/08 02:02:57;;;;;;;;;9.00;9.00;;;;;22.24;38.66;102203.25;4973331;28;45418;-61
2021/11/08 02:05:23;;;;;;;;;8.75;8.00;;;;;22.22;39.07;102196.44;4973865;28;45347;-62
2021/11/08 02:07:49;;;;;;;;;9.25;9.00;;;;;22.22;39.03;102207.03;4974504;28;45487;-62
2021/11/08 02:10:16;;;;;;;;;9.00;8.00;;;;;22.24;38.65;102195.28;4973129;28;45400;-62
2021/11/08 02:12:43;;;;;;;;;7.25;7.00;;;;;22.24;39.19;102191.81;4971180;28;46930;-61
2021/11/08 02:15:15;;;;;;;;;8.00;8.00;;;;;22.22;38.58;102191.13;4973047;28;45451;-61
2021/11/08 02:17:46;;;;;;;;;9.00;9.00;;;;;22.22;38.74;102199.91;4973133;28;45311;-61
2021/11/08 02:20:16;;;;;;;;;8.00;8.00;;;;;22.22;38.45;102201.72;4971133;28;45630;-61
2021/11/08 02:22:43;;;;;;;;;10.75;8.25;;;;;22.14;38.95;102198.00;4973957;28;47554;-62
2021/11/08 02:25:09;;;;;;;;;8.75;8.00;;;;;22.22;38.74;102202.56;4972713;28;45430;-61
2021/11/08 02:27:37;;;;;;;;;11.25;10.50;;;;;22.18;38.71;102193.22;4972651;28;45483;-62
2021/11/08 02:30:05;;;;;;;;;14.50;9.50;;;;;22.20;38.98;102203.69;4973045;28;45494;-62
2021/11/08 02:32:31;;;;;;;;;11.00;9.25;;;;;22.21;38.48;102208.00;4972702;28;45416;-62
2021/11/08 02:34:56;;;;;;;;;7.00;7.00;;;;;22.21;38.92;102200.06;4974683;28;45568;-62
2021/11/08 02:37:22;;;;;;;;;11.25;9.75;;;;;22.22;38.98;102204.38;4971442;28;45328;-62
2021/11/08 02:39:50;;;;;;;;;9.50;8.00;;;;;22.18;38.95;102198.53;4973062;28;45380;-61
2021/11/08 02:42:15;;;;;;;;;10.00;8.75;;;;;22.18;38.89;102199.38;4972406;28;45254;-61
2021/11/08 02:44:40;;;;;;;;;10.75;10.00;;;;;22.17;38.51;102199.53;4972686;28;45374;-62
2021/11/08 02:47:06;;;;;;;;;9.75;9.50;;;;;22.18;38.60;102207.31;4974945;28;45370;-61
2021/11/08 02:49:34;;;;;;;;;10.50;8.25;;;;;22.20;38.86;102217.75;4972614;28;45295;-62
2021/11/08 02:52:05;;;;;;;;;8.00;6.75;;;;;22.16;38.54;102206.66;4971028;28;46212;-61
2021/11/08 02:54:36;;;;;;;;;8.00;8.00;;;;;22.01;38.85;102177.16;4971714;28;45586;-61
2021/11/08 02:57:01;;;;;;;;;9.00;8.50;;;;;22.18;38.83;102194.06;4972704;28;45948;-61
2021/11/08 02:59:29;;;;;;;;;10.50;9.00;;;;;22.17;38.62;102189.72;4972883;28;45524;-62
2021/11/08 03:01:55;;;;;;;;;10.25;8.50;;;;;22.15;38.38;102185.56;4972341;28;45541;-62
2021/11/08 03:04:42;;;;;;;;;9.75;9.00;;;;;22.19;38.88;102200.22;4972229;28;45488;-61
2021/11/08 03:07:08;;;;;;;;;14.00;8.50;;;;;22.18;38.76;102193.22;4972367;28;45339;-61
2021/11/08 03:09:50;;;;;;;;;9.75;7.00;;;;;22.15;38.39;102197.00;4972075;28;49601;-61
2021/11/08 03:12:20;;;;;;;;;12.00;8.25;;;;;22.18;38.38;102217.09;4972211;28;46063;-61
2021/11/08 03:17:36;;;;;;;;;8.50;8.00;;;;;22.11;38.42;102185.03;4972950;28;45416;-61
2021/11/08 03:20:05;;;;;;;;;10.00;8.00;;;;;22.18;38.57;102198.53;4973141;28;45430;-62
2021/11/08 03:22:32;;;;;;;;;8.75;8.50;;;;;22.17;38.38;102197.69;4971984;28;46095;-62
2021/11/08 03:25:09;;;;;;;;;11.00;9.00;;;;;22.17;38.08;102202.19;4971650;28;45397;-61
2021/11/08 03:30:00;;;;;;;;;8.75;8.75;;;;;22.17;38.70;102194.22;4970862;28;45367;-61
2021/11/08 03:32:26;;;;;;;;;11.00;7.50;;;;;22.17;38.08;102203.00;4972580;28;46200;-62
2021/11/08 03:34:59;;;;;;;;;8.25;7.50;;;;;22.17;38.50;102210.94;4973571;28;45333;-61
2021/11/08 03:37:25;;;;;;;;;10.25;8.00;;;;;22.13;38.15;102193.69;4990529;28;45534;-62
2021/11/08 03:39:51;;;;;;;;;9.25;7.75;;;;;22.14;38.68;102187.41;4971833;28;45328;-61
2021/11/08 03:42:18;;;;;;;;;12.50;10.50;;;;;22.18;38.50;102195.88;4971829;28;46401;-61
2021/11/08 03:44:44;;;;;;;;;8.75;8.00;;;;;22.17;38.70;102197.69;4957051;28;45444;-61
2021/11/08 03:47:10;;;;;;;;;10.00;7.25;;;;;22.17;38.37;102210.94;4970076;28;45343;-61
2021/11/08 03:49:36;;;;;;;;;8.75;7.00;;;;;22.17;38.52;102197.69;4971987;28;45462;-61
2021/11/08 03:52:02;;;;;;;;;7.50;7.00;;;;;22.15;38.45;102194.34;4971656;28;47819;-61
2021/11/08 03:54:27;;;;;;;;;10.00;8.25;;;;;22.15;38.55;102194.34;4971544;28;45593;-61
2021/11/08 03:56:53;;;;;;;;;11.00;8.50;;;;;22.14;38.08;102203.31;4970949;28;45295;-61
2021/11/08 03:59:19;;;;;;;;;8.25;8.25;;;;;22.09;38.10;102189.66;4969687;28;45530;-62
2021/11/08 04:01:45;;;;;;;;;9.25;8.00;;;;;22.14;38.07;102198.00;4972367;28;46025;-61
2021/11/08 04:04:11;;;;;;;;;9.50;7.75;;;;;22.14;38.55;102213.91;4971740;28;45391;-61
2021/11/08 04:06:41;;;;;;;;;6.00;6.00;;;;;22.14;38.54;102210.41;4971742;28;45437;-62
2021/11/08 04:09:12;;;;;;;;;11.25;9.50;;;;;22.13;38.41;102201.63;4970126;28;45478;-61
2021/11/08 04:11:39;;;;;;;;;10.25;7.00;;;;;22.12;38.05;102202.59;4971561;28;47244;-61
2021/11/08 04:14:05;;;;;;;;;7.50;6.00;;;;;22.13;38.10;102217.53;4973418;28;45428;-61
2021/11/08 04:16:33;;;;;;;;;7.00;6.00;;;;;22.12;38.43;102213.19;4971642;28;45372;-62
2021/11/08 04:19:00;;;;;;;;;8.00;8.00;;;;;22.12;38.01;102209.75;4971503;28;45472;-61
2021/11/08 04:21:27;;;;;;;;;9.00;8.00;;;;;22.13;38.38;102216.69;4971203;28;46561;-61
2021/11/08 04:23:52;;;;;;;;;10.25;7.75;;;;;22.13;38.45;102217.53;4971238;28;45419;-62
2021/11/08 04:26:19;;;;;;;;;9.00;9.00;;;;;22.09;38.34;102215.34;4972995;28;45275;-62
2021/11/08 04:28:57;;;;;;;;;8.50;8.25;;;;;22.09;38.02;102205.56;4972395;28;45626;-62
2021/11/08 04:31:24;;;;;;;;;8.00;8.00;;;;;22.12;37.86;102210.56;4971172;28;46660;-61
2021/11/08 04:33:56;;;;;;;;;8.00;8.00;;;;;22.13;38.40;102214.03;4969969;28;45346;-61
2021/11/08 04:39:19;;;;;;;;;10.00;8.75;;;;;22.06;38.39;102213.81;4961467;28;45552;-61
2021/11/08 04:54:49;;;;;;;;;8.25;7.75;;;;;22.09;38.13;102218.81;4966781;28;45409;-62
2021/11/08 05:21:53;;;;;;;;;8.50;8.00;;;;;21.91;37.78;102195.72;5053983;28;45523;-62
2021/11/08 05:32:17;;;;;;;;;9.50;8.00;;;;;22.09;37.80;102244.47;5052488;28;45477;-62
2021/11/08 05:34:43;;;;;;;;;8.75;8.00;;;;;22.07;37.54;102240.16;5053174;28;46128;-62
2021/11/08 05:37:09;;;;;;;;;11.25;10.00;;;;;22.07;37.79;102237.50;5052529;28;45564;-62
2021/11/08 05:39:43;;;;;;;;;10.00;9.00;;;;;22.07;38.10;102240.16;5054516;28;45379;-62
2021/11/08 05:42:09;;;;;;;;;7.75;7.75;;;;;22.07;37.66;102240.16;5052748;28;45482;-62
2021/11/08 05:44:37;;;;;;;;;8.00;7.50;;;;;22.03;38.16;102228.19;5053877;28;46191;-62
2021/11/08 05:47:03;;;;;;;;;8.25;8.00;;;;;22.04;37.54;102232.50;5054881;28;45367;-62
2021/11/08 05:49:28;;;;;;;;;9.50;9.25;;;;;22.04;38.16;102226.38;5052059;28;45376;-62
2021/11/08 05:51:54;;;;;;;;;9.25;9.25;;;;;22.05;37.54;102233.34;5030867;28;45408;-62
2021/11/08 05:54:21;;;;;;;;;13.00;9.00;;;;;22.07;38.10;102240.16;4971758;28;46986;-62
2021/11/08 05:57:04;;;;;;;;;8.00;7.75;;;;;22.02;37.49;102230.97;4973433;28;45645;-62
2021/11/08 06:51:15;;;;;;;;;9.50;9.00;;;;;22.05;37.50;102275.72;4941041;28;45702;-63
2021/11/08 06:53:45;;;;;;;;;8.25;8.25;;;;;22.04;38.02;102269.59;4935722;28;45440;-62
2021/11/08 06:56:10;;;;;;;;;9.00;9.00;;;;;22.04;38.13;102274.09;4968435;28;45503;-62
2021/11/08 06:58:37;;;;;;;;;11.50;10.00;;;;;22.04;38.20;102269.59;4967941;28;45339;-62
2021/11/08 07:01:02;;;;;;;;;9.00;9.00;;;;;22.02;37.94;102271.56;4968309;28;45359;-62
2021/11/08 07:03:28;;;;;;;;;9.00;8.00;;;;;22.04;38.13;102285.50;4966931;28;45434;-62
2021/11/08 07:05:53;;;;;;;;;9.50;9.50;;;;;22.02;38.34;102290.09;4957540;28;45360;-63
2021/11/08 07:08:18;;;;;;;;;15.50;9.00;;;;;22.01;38.61;102282.31;4971163;28;46301;-63
2021/11/08 07:10:45;;;;;;;;;10.00;8.00;;;;;22.08;37.98;102294.00;4972319;28;45275;-63
2021/11/08 07:13:11;;;;;;;;;12.00;9.25;;;;;22.09;38.31;102301.00;4972476;28;45304;-63
2021/11/08 07:15:37;;;;;;;;;9.75;9.25;;;;;22.04;38.14;102298.75;4967383;28;45382;-62
2021/11/08 07:18:03;;;;;;;;;9.25;9.25;;;;;22.09;38.47;102319.53;4969711;28;46265;-63
2021/11/08 07:20:29;;;;;;;;;7.75;7.50;;;;;22.09;38.59;102316.06;4970370;28;45594;-63
2021/11/08 07:22:54;;;;;;;;;7.00;7.00;;;;;22.07;38.30;102306.41;4974190;28;45488;-64
2021/11/08 07:25:20;;;;;;;;;11.75;10.50;;;;;22.06;38.49;102307.41;4970696;28;45616;-63
2021/11/08 07:27:46;;;;;;;;;10.75;8.75;;;;;22.07;38.20;102309.06;4972041;28;45965;-64
2021/11/08 07:30:12;;;;;;;;;16.00;10.50;;;;;22.09;38.66;102311.59;4971826;28;45419;-61
2021/11/08 07:32:37;;;;;;;;;14.50;8.25;;;;;22.04;38.53;102304.03;4972545;28;45371;-63
2021/11/08 07:35:04;;;;;;;;;10.50;10.25;;;;;22.07;38.71;102314.38;4974123;28;45454;-62
2021/11/08 07:37:30;;;;;;;;;13.00;11.00;;;;;21.92;38.64;102299.91;4971803;28;46258;-62
2021/11/08 07:39:56;;;;;;;;;11.25;9.00;;;;;22.09;38.50;102326.66;4971589;28;45319;-62
2021/11/08 07:42:21;;;;;;;;;14.75;8.00;;;;;22.02;38.99;102311.31;4971467;28;45535;-62
2021/11/08 07:44:47;;;;;;;;;9.75;8.50;;;;;22.09;38.95;102331.94;4971739;28;45448;-62
2021/11/08 07:47:13;;;;;;;;;9.25;9.00;;;;;22.04;38.55;102327.91;4973910;28;46551;-62
2021/11/08 07:49:39;;;;;;;;;9.50;8.50;;;;;22.03;38.36;102323.59;4971637;28;45407;-62
2021/11/08 07:52:05;;;;;;;;;7.50;7.00;;;;;22.03;38.39;102320.94;4970474;28;45358;-62
2021/11/08 07:54:32;;;;;;;;;12.00;9.00;;;;;22.07;38.38;102340.88;4970100;28;45404;-62
2021/11/08 07:56:58;;;;;;;;;11.25;9.75;;;;;22.07;38.19;102343.53;4971679;28;45582;-62
2021/11/08 07:59:24;;;;;;;;;11.50;8.25;;;;;22.06;38.65;102347.16;4972122;28;45359;-62
2021/11/08 08:01:49;;;;;;;;;14.00;9.00;;;;;22.07;38.44;102353.28;4972713;28;45733;-62
2021/11/08 08:04:16;;;;;;;;;10.00;9.25;;;;;22.05;38.46;102352.59;4970092;28;45357;-62
2021/11/08 08:06:43;;;;;;;;;11.75;11.75;;;;;22.03;38.91;102360.69;4971148;28;45469;-62
2021/11/08 08:09:08;;;;;;;;;12.25;8.50;;;;;22.06;38.37;102371.03;4971326;28;45560;-62
2021/11/08 08:11:34;;;;;;;;;9.00;8.75;;;;;21.90;38.82;102342.47;4971430;28;45342;-62
2021/11/08 08:13:59;;;;;;;;;13.75;9.75;;;;;21.88;38.24;102332.97;4973174;28;45495;-62
2021/11/08 08:16:25;;;;;;;;;12.00;9.25;;;;;22.06;38.73;102356.94;4971292;28;45497;-62
2021/11/08 08:18:51;;;;;;;;;10.25;10.00;;;;;22.01;38.23;102348.56;4971440;28;45396;-62
2021/11/08 08:21:18;;;;;;;;;13.50;11.00;;;;;22.02;38.36;102359.03;4971317;28;45572;-62
2021/11/08 08:23:47;;;;;;;;;11.00;9.00;;;;;22.07;38.13;102367.38;4956034;28;45421;-62
2021/11/08 08:26:13;;;;;;;;;9.75;7.75;;;;;22.06;38.65;102355.13;4969442;28;46228;-62
2021/11/08 08:28:39;;;;;;;;;9.00;9.00;;;;;22.09;38.58;102355.81;4970860;28;45395;-62
2021/11/08 08:31:05;;;;;;;;;9.00;8.00;;;;;22.07;38.64;102351.47;4969945;28;45497;-62
2021/11/08 08:33:31;;;;;;;;;11.00;8.25;;;;;22.06;38.50;102356.94;4971232;28;45502;-62
2021/11/08 08:35:58;;;;;;;;;11.00;11.00;;;;;22.03;37.96;102357.22;4971303;28;45405;-62
2021/11/08 08:38:23;;;;;;;;;10.00;10.00;;;;;22.07;38.36;102361.22;4972132;28;45336;-62
2021/11/08 08:40:51;;;;;;;;;10.00;10.00;;;;;22.04;38.62;102356.25;4972439;28;45320;-62
2021/11/08 08:43:18;;;;;;;;;9.00;8.00;;;;;22.07;38.73;102356.78;4969318;28;45620;-62
2021/11/08 08:45:43;;;;;;;;;11.00;10.25;;;;;22.06;38.37;102348.97;4970839;28;45502;-62
2021/11/08 08:48:11;;;;;;;;;11.75;8.50;;;;;22.07;38.03;102356.78;4971237;28;45362;-62
2021/11/08 08:50:38;;;;;;;;;12.75;10.00;;;;;22.10;37.97;102368.06;4971380;28;45548;-62
2021/11/08 08:53:04;;;;;;;;;8.75;8.25;;;;;22.03;38.18;102350.09;4972182;28;45343;-62
2021/11/08 08:55:29;;;;;;;;;9.25;8.00;;;;;22.10;38.56;102365.41;4970792;28;47166;-62
2021/11/08 08:57:58;;;;;;;;;14.25;11.75;;;;;22.05;38.26;102358.75;4970561;28;45476;-62
2021/11/08 09:00:25;;;;;;;;;13.25;10.25;;;;;22.08;38.01;102368.22;4971061;28;45512;-62
2021/11/08 09:02:53;;;;;;;;;10.75;9.25;;;;;22.10;37.82;102371.56;4971103;28;45301;-62
2021/11/08 09:05:20;;;;;;;;;8.50;8.00;;;;;21.84;38.19;102319.13;4971972;28;47127;-62
2021/11/08 09:07:46;;;;;;;;;10.00;10.00;;;;;22.12;38.11;102368.78;4971421;28;45393;-62
2021/11/08 09:10:11;;;;;;;;;11.00;9.50;;;;;22.10;37.87;102355.66;4969477;28;45519;-62
2021/11/08 09:12:38;;;;;;;;;9.50;9.50;;;;;22.07;38.23;102354.13;4970530;28;45493;-62
2021/11/08 09:15:05;;;;;;;;;10.75;10.00;;;;;22.13;38.16;102359.84;4970738;28;45989;-62
2021/11/08 09:17:30;;;;;;;;;10.25;9.50;;;;;22.12;38.05;102350.22;4970852;28;45379;-62
2021/11/08 09:19:56;;;;;;;;;12.25;9.25;;;;;22.12;38.08;102358.19;4972743;28;45516;-62
2021/11/08 09:22:21;;;;;;;;;11.00;10.50;;;;;22.06;37.87;102351.63;4969056;28;45427;-62
2021/11/08 09:24:47;;;;;;;;;12.75;10.00;;;;;22.10;38.05;102366.25;4970617;28;46625;-62
2021/11/08 09:27:12;;;;;;;;;12.50;12.00;;;;;22.09;38.37;102359.31;4970285;28;45359;-62
2021/11/08 09:29:37;;;;;;;;;12.50;10.75;;;;;22.13;37.85;102365.13;4970768;28;45393;-62
2021/11/08 09:32:03;;;;;;;;;10.00;8.75;;;;;22.06;38.42;102357.78;4972624;28;45372;-62
2021/11/08 09:34:29;;;;;;;;;13.00;10.25;;;;;22.10;38.27;102362.75;4970115;28;46980;-62
2021/11/08 09:36:58;;;;;;;;;9.75;8.25;;;;;22.12;37.98;102368.78;4970295;28;45649;-62
2021/11/08 09:39:27;;;;;;;;;13.75;12.00;;;;;22.07;37.81;102366.53;4970415;28;45392;-62
2021/11/08 09:41:57;;;;;;;;;9.00;8.75;;;;;22.07;38.11;102350.63;4969935;28;45648;-62
2021/11/08 09:44:24;;;;;;;;;9.25;9.25;;;;;22.10;38.44;102354.81;4971480;28;46034;-62
2021/11/08 09:46:54;;;;;;;;;8.50;8.00;;;;;22.00;38.29;102345.09;4971575;28;45467;-62
2021/11/08 09:49:20;;;;;;;;;13.75;10.75;;;;;22.15;37.99;102369.31;4968854;28;45382;-62
2021/11/08 09:51:48;;;;;;;;;10.25;9.50;;;;;22.11;38.36;102370.59;4970063;28;45422;-62
2021/11/08 09:54:14;;;;;;;;;10.50;9.50;;;;;22.14;38.37;102370.31;4965229;28;46345;-62
2021/11/08 09:56:42;;;;;;;;;8.75;8.00;;;;;22.09;38.43;102356.66;4953250;28;45336;-62
2021/11/08 09:59:08;;;;;;;;;13.75;9.75;;;;;22.11;38.34;102364.44;4966698;28;45289;-62
2021/11/08 10:01:39;;;;;;;;;10.00;10.00;;;;;22.16;38.43;102375.44;4964174;28;45384;-62
2021/11/08 10:04:07;;;;;;;;;10.75;8.50;;;;;22.16;38.30;102367.50;4962773;28;45677;-62
2021/11/08 10:06:36;;;;;;;;;10.25;10.25;;;;;22.14;38.16;102364.16;4958240;28;47465;-62
2021/11/08 10:09:06;;;;;;;;;9.50;9.25;;;;;22.09;38.19;102358.47;4971205;28;45423;-62
2021/11/08 10:11:31;;;;;;;;;14.75;11.00;;;;;22.14;38.07;102364.16;4971400;28;45499;-62
2021/11/08 10:13:58;;;;;;;;;11.00;9.50;;;;;22.16;37.67;102364.84;4970559;28;47159;-62
2021/11/08 10:16:26;;;;;;;;;12.25;10.50;;;;;22.16;37.86;102354.25;4968725;28;45320;-62
2021/11/08 10:18:56;;;;;;;;;9.50;9.50;;;;;22.15;38.11;102348.09;4968996;28;45348;-62
2021/11/08 10:21:50;;;;;;;;;12.00;11.25;;;;;22.16;37.67;102356.91;4968651;28;45367;-62
2021/11/08 10:24:22;;;;;;;;;11.00;11.00;;;;;22.17;37.78;102361.22;4967227;28;45415;-62
2021/11/08 10:26:50;;;;;;;;;13.00;12.00;;;;;22.14;38.17;102357.06;4957957;28;45862;-62
2021/11/08 10:29:19;;;;;;;;;9.50;9.50;;;;;22.16;37.60;102359.53;4971063;28;45478;-62
2021/11/08 10:31:48;;;;;;;;;10.00;8.75;;;;;22.15;37.80;102350.75;4967612;28;45495;-62
2021/11/08 10:34:15;;;;;;;;;14.00;8.75;;;;;22.13;37.56;102360.66;4968277;28;47315;-62
2021/11/08 10:36:42;;;;;;;;;10.00;8.00;;;;;22.17;38.01;102363.88;4968340;28;45478;-62
2021/11/08 10:39:10;;;;;;;;;9.25;9.00;;;;;22.16;37.71;102363.03;4971377;28;45418;-62
2021/11/08 10:41:42;;;;;;;;;9.25;9.25;;;;;22.16;38.20;102362.19;4972589;28;45482;-62
2021/11/08 10:44:12;;;;;;;;;9.75;9.00;;;;;22.16;38.05;102363.03;4974401;28;47706;-62
2021/11/08 10:46:41;;;;;;;;;13.00;12.00;;;;;22.17;37.69;102355.94;4972572;28;45693;-62
2021/11/08 10:49:15;;;;;;;;;8.25;8.00;;;;;22.17;38.00;102359.38;4972423;28;45279;-62
2021/11/08 10:51:43;;;;;;;;;12.00;10.25;;;;;22.17;37.48;102362.03;4972491;28;45377;-62
2021/11/08 10:54:31;;;;;;;;;10.00;9.25;;;;;22.18;37.53;102357.59;4968761;28;47517;-62
2021/11/08 10:57:12;;;;;;;;;14.00;11.25;;;;;22.18;37.92;102353.13;4958604;28;45514;-62
2021/11/08 10:59:44;;;;;;;;;12.75;11.00;;;;;22.17;38.06;102350.63;4972699;28;45442;-62
2021/11/08 11:02:13;;;;;;;;;13.25;12.00;;;;;22.17;38.19;102340.84;4974441;28;45308;-62
2021/11/08 11:04:45;;;;;;;;;10.75;10.75;;;;;22.18;37.96;102342.53;4972190;28;45656;-62
2021/11/08 11:07:19;;;;;;;;;10.75;9.50;;;;;22.14;37.96;102346.44;4971113;28;45287;-62
2021/11/08 11:09:45;;;;;;;;;10.00;10.00;;;;;22.17;37.69;102345.31;4972051;28;45257;-62
2021/11/08 11:12:19;;;;;;;;;12.00;11.25;;;;;22.19;37.58;102340.72;4972438;28;45615;-62
2021/11/08 11:14:45;;;;;;;;;10.25;10.00;;;;;22.18;38.05;102337.22;4955835;28;46418;-62
2021/11/08 11:17:32;;;;;;;;;8.50;8.00;;;;;22.18;37.90;102344.31;4973472;28;45403;-61
2021/11/08 11:20:08;;;;;;;;;10.75;9.75;;;;;22.20;37.74;102350.31;4972493;28;45454;-61
2021/11/08 11:22:36;;;;;;;;;9.50;9.50;;;;;22.20;38.14;102350.31;4971766;28;45431;-61
2021/11/08 11:25:07;;;;;;;;;11.00;8.75;;;;;22.20;38.00;102341.56;4971842;28;47656;-61
2021/11/08 11:27:48;;;;;;;;;11.50;10.50;;;;;22.18;37.33;102339.88;4971899;28;45481;-61
2021/11/08 11:30:18;;;;;;;;;12.75;10.25;;;;;22.21;38.02;102345.84;4972304;28;45660;-61
2021/11/08 11:32:45;;;;;;;;;9.00;8.50;;;;;22.21;37.91;102345.84;4972156;28;45425;-61
2021/11/08 11:35:20;;;;;;;;;13.25;11.00;;;;;22.18;37.65;102342.53;4972591;28;47268;-61
2021/11/08 11:37:56;;;;;;;;;11.25;11.00;;;;;22.17;37.43;102337.38;4971097;28;45455;-61
2021/11/08 11:40:23;;;;;;;;;9.00;9.00;;;;;22.16;37.43;102323.28;4971990;28;45281;-62
2021/11/08 11:42:58;;;;;;;;;10.75;9.50;;;;;22.20;37.87;102329.09;4971863;28;45384;-61
2021/11/08 11:45:25;;;;;;;;;6.75;5.75;;;;;22.17;37.43;102324.94;4970419;28;46972;-62
2021/11/08 11:48:00;;;;;;;;;11.00;9.25;;;;;22.18;37.58;102323.97;4972081;28;45555;-61
2021/11/08 11:50:27;;;;;;;;;15.50;13.50;;;;;22.20;37.54;102323.00;4972734;28;45339;-62
2021/11/08 11:52:53;;;;;;;;;11.25;8.50;;;;;22.14;37.76;102314.63;4972997;28;45562;-62
2021/11/08 11:55:19;;;;;;;;;11.00;11.00;;;;;22.20;37.69;102323.00;4971585;28;47609;-62
2021/11/08 11:57:45;;;;;;;;;9.75;9.75;;;;;22.16;37.52;102310.03;4970207;28;45492;-62
2021/11/08 12:00:11;;;;;;;;;11.25;8.75;;;;;22.17;37.54;102308.22;4972129;28;45443;-62
2021/11/08 12:02:36;;;;;;;;;9.25;9.25;;;;;22.20;37.36;102304.44;4971807;28;45276;-62
2021/11/08 12:05:02;;;;;;;;;10.00;9.75;;;;;22.17;37.56;102297.63;4973384;28;45301;-62
2021/11/08 12:07:28;;;;;;;;;10.00;9.25;;;;;22.21;37.94;102293.69;4971158;28;45319;-62
2021/11/08 12:09:54;;;;;;;;;9.50;9.00;;;;;22.14;37.62;102285.47;4971598;28;45335;-62
2021/11/08 12:12:24;;;;;;;;;9.50;9.25;;;;;22.17;37.62;102287.81;4971755;28;45489;-63
2021/11/08 12:15:08;;;;;;;;;12.25;10.00;;;;;22.15;37.48;102278.34;4971679;28;46573;-63
2021/11/08 12:17:42;;;;;;;;;14.00;11.00;;;;;22.22;37.98;102289.22;4971417;28;45384;-63
2021/11/08 12:20:12;;;;;;;;;10.75;9.00;;;;;22.22;37.33;102279.44;4973251;28;45291;-62
2021/11/08 12:22:38;;;;;;;;;10.50;9.50;;;;;22.12;37.49;102265.41;4989748;28;45687;-62
2021/11/08 12:25:12;;;;;;;;;8.25;8.25;;;;;22.23;37.88;102280.25;4971462;28;46599;-63
2021/11/08 12:28:08;;;;;;;;;10.75;10.50;;;;;22.23;37.94;102269.66;4970039;28;45474;-62
2021/11/08 12:30:37;;;;;;;;;10.75;9.00;;;;;22.23;37.74;102269.66;4971442;28;45432;-61
2021/11/08 12:33:27;;;;;;;;;11.25;10.00;;;;;22.18;37.45;102257.69;4971455;28;45534;-61
2021/11/08 12:35:55;;;;;;;;;12.25;11.50;;;;;22.13;37.48;102248.50;4955172;28;46029;-63
2021/11/08 12:38:25;;;;;;;;;9.00;9.00;;;;;22.22;37.74;102268.84;4972538;28;45288;-62
2021/11/08 12:41:13;;;;;;;;;12.75;11.00;;;;;22.22;37.46;102265.34;4972638;28;45378;-62
2021/11/08 12:43:42;;;;;;;;;10.00;9.50;;;;;22.22;37.89;102268.00;4971204;28;45554;-62
2021/11/08 12:46:19;;;;;;;;;10.25;10.00;;;;;22.20;37.56;102260.19;4970978;28;45522;-61
2021/11/08 12:48:47;;;;;;;;;10.00;9.50;;;;;22.18;37.35;102256.84;4971097;28;45354;-62
2021/11/08 12:51:15;;;;;;;;;12.00;8.00;;;;;22.21;37.50;102251.25;4970337;28;45705;-62
2021/11/08 12:53:44;;;;;;;;;11.00;10.00;;;;;22.18;37.42;102239.13;4971060;28;45692;-62
2021/11/08 12:56:22;;;;;;;;;8.25;8.25;;;;;22.20;37.44;102233.66;4973241;28;45347;-62
2021/11/08 12:58:56;;;;;;;;;9.50;8.75;;;;;22.21;37.71;102240.66;4970455;28;45304;-63
2021/11/08 13:01:24;;;;;;;;;10.25;9.25;;;;;22.20;37.49;102246.94;4970944;28;45342;-63
2021/11/08 13:03:53;;;;;;;;;7.25;7.25;;;;;22.20;37.65;102246.13;4969087;28;45335;-62
2021/11/08 13:06:35;;;;;;;;;10.75;9.25;;;;;22.16;38.09;102240.25;4970734;28;47383;-63
2021/11/08 13:09:08;;;;;;;;;11.50;7.75;;;;;22.17;37.53;102253.34;4956117;28;45427;-62
2021/11/08 13:11:55;;;;;;;;;12.50;12.50;;;;;22.17;37.98;102255.19;4970998;28;45260;-63
2021/11/08 13:14:27;;;;;;;;;9.00;9.00;;;;;22.21;38.05;102253.91;4969120;28;45413;-63